| time (UTC) | temp F | wind direction | speed knots | gust knots | rain 1hr in | rain 24hr in | rain mn in | humidity % | barometer mb |
| 20260508151512 | 57 | 200 | 2.6 | 7.0 | 0.00 | 0.81 | 0.00 | 58 | 1001.4 |
| 20260508150009 | 59 | 181 | 4.3 | 8.7 | 0.00 | 0.81 | 0.00 | 58 | 1001.1 |
| 20260508144507 | 60 | 90 | 1.7 | 8.7 | 0.00 | 0.81 | 0.00 | 53 | 1001.3 |
| 20260508143005 | 59 | 95 | 2.6 | 8.7 | 0.00 | 0.81 | 0.00 | 49 | 1001.5 |
| 20260508141502 | 59 | 99 | 6.1 | 10.4 | 0.00 | 0.81 | 0.00 | 57 | 1001.5 |
| 20260508140115 | 58 | 92 | 5.2 | 9.6 | 0.00 | 0.81 | 0.00 | 60 | 1001.6 |
| 20260508134557 | 57 | 96 | 4.3 | 10.4 | 0.00 | 0.81 | 0.00 | 63 | 1001.6 |
| 20260508133053 | 57 | 130 | 1.7 | 7.8 | 0.00 | 0.81 | 0.00 | 65 | 1001.9 |
| 20260508131558 | 57 | 98 | 4.3 | 10.4 | 0.00 | 0.81 | 0.00 | 65 | 1001.8 |
| 20260508130046 | 56 | 85 | 3.5 | 7.0 | 0.00 | 0.81 | 0.00 | 68 | 1001.9 |
| 20260508124541 | 56 | 84 | 2.6 | 7.0 | 0.00 | 0.81 | 0.00 | 71 | 1001.9 |
| 20260508123037 | 55 | 56 | 2.6 | 7.0 | 0.00 | 0.81 | 0.00 | 76 | 1001.8 |
| 20260508121532 | 53 | 91 | 4.3 | 9.6 | 0.00 | 0.81 | 0.00 | 79 | 1001.8 |
| 20260508120036 | 52 | 86 | 4.3 | 8.7 | 0.00 | 0.81 | 0.00 | 85 | 1001.8 |
| 20260508114523 | 51 | 106 | 0.9 | 5.2 | 0.00 | 0.81 | 0.00 | 93 | 1002.3 |
| 20260508113021 | 49 | 78 | 0.0 | 3.5 | 0.00 | 0.81 | 0.00 | 97 | 1002.3 |
| 20260508111519 | 47 | 57 | 0.0 | 0.0 | 0.00 | 0.81 | 0.00 | 97 | 1002.4 |
| 20260508110018 | 46 | 56 | 0.0 | 0.0 | 0.00 | 0.81 | 0.00 | 97 | 1002.3 |
| 20260508104515 | 45 | 68 | 0.0 | 0.0 | 0.00 | 0.81 | 0.00 | 98 | 1002.3 |
| 20260508103026 | 42 | 73 | 0.0 | 0.0 | 0.00 | 0.81 | 0.00 | 97 | 1002.7 |
| 20260508101517 | 41 | 72 | 0.0 | 0.0 | 0.00 | 0.81 | 0.00 | 96 | 1002.6 |
| 20260508100010 | 41 | 70 | 0.0 | 0.0 | 0.00 | 0.81 | 0.00 | 96 | 1002.4 |
| 20260508094506 | 41 | 70 | 0.0 | 0.0 | 0.00 | 0.81 | 0.00 | 97 | 1002.5 |
| 20260508093006 | 41 | 68 | 0.0 | 0.0 | 0.00 | 0.81 | 0.00 | 96 | 1002.4 |
| 20260508091504 | 40 | 68 | 0.0 | 0.0 | 0.00 | 0.81 | 0.00 | 96 | 1002.2 |
| 20260508090128 | 41 | 68 | 0.0 | 0.0 | 0.00 | 0.81 | 0.00 | 96 | 1002.0 |
| 20260508084601 | 41 | 68 | 0.0 | 0.0 | 0.00 | 0.81 | 0.00 | 96 | 1002.2 |
| 20260508083117 | 42 | 69 | 0.0 | 0.0 | 0.00 | 0.81 | 0.00 | 96 | 1002.2 |
| 20260508081556 | 42 | 68 | 0.0 | 0.0 | 0.00 | 0.81 | 0.00 | 96 | 1002.0 |
| 20260508080056 | 42 | 68 | 0.0 | 0.0 | 0.00 | 0.81 | 0.00 | 96 | 1001.9 |
| 20260508074554 | 42 | 66 | 0.0 | 0.0 | 0.00 | 0.81 | 0.00 | 96 | 1001.6 |
| 20260508073054 | 42 | 66 | 0.0 | 0.0 | 0.00 | 0.81 | 0.00 | 95 | 1001.6 |
| 20260508071550 | 43 | 66 | 0.0 | 0.0 | 0.00 | 0.81 | 0.00 | 96 | 1001.8 |
| 20260508070049 | 43 | 66 | 0.0 | 0.0 | 0.00 | 0.81 | 0.00 | 95 | 1001.7 |
| 20260508064555 | 44 | 66 | 0.0 | 0.0 | 0.00 | 0.81 | 0.00 | 95 | 1001.7 |
| 20260508063047 | 44 | 66 | 0.0 | 0.0 | 0.00 | 0.81 | 0.00 | 96 | 1001.8 |
| 20260508061544 | 44 | 67 | 0.0 | 0.0 | 0.00 | 0.81 | 0.00 | 95 | 1001.7 |
| 20260508060042 | 45 | 67 | 0.0 | 0.0 | 0.00 | 0.81 | 0.00 | 96 | 1001.9 |
| 20260508054541 | 45 | 67 | 0.0 | 0.0 | 0.00 | 0.81 | 0.00 | 96 | 1002.0 |
| 20260508053040 | 45 | 66 | 0.0 | 0.0 | 0.00 | 0.81 | 0.00 | 96 | 1001.9 |
| 20260508051537 | 46 | 66 | 0.0 | 0.0 | 0.00 | 0.81 | 0.00 | 95 | 1001.9 |
| 20260508050035 | 46 | 68 | 0.0 | 0.0 | 0.00 | 0.81 | 0.00 | 95 | 1001.8 |
| 20260508044535 | 46 | 70 | 0.0 | 0.0 | 0.00 | 0.81 | 0.00 | 95 | 1001.6 |
| 20260508043033 | 47 | 70 | 0.0 | 0.0 | 0.00 | 0.81 | 0.00 | 95 | 1001.5 |
| 20260508041530 | 48 | 69 | 0.0 | 0.0 | 0.00 | 0.81 | 0.00 | 95 | 1001.7 |
| 20260508040035 | 49 | 70 | 0.9 | 3.5 | 0.00 | 0.81 | 0.00 | 96 | 1001.8 |
| 20260508034529 | 49 | 78 | 1.7 | 5.2 | 0.00 | 0.81 | 0.00 | 95 | 1002.1 |
| 20260508033025 | 49 | 77 | 1.7 | 3.5 | 0.00 | 0.81 | 0.00 | 96 | 1002.2 |
| 20260508031528 | 49 | 64 | 3.5 | 5.2 | 0.00 | 0.81 | 0.00 | 96 | 1002.2 |
| 20260508030018 | 50 | 305 | 0.0 | 0.0 | 0.00 | 0.81 | 0.00 | 96 | 1002.3 |
| 20260508024517 | 50 | 305 | 0.0 | 0.0 | 0.00 | 0.81 | 0.81 | 96 | 1002.3 |
| 20260508023026 | 50 | 305 | 0.0 | 0.0 | 0.00 | 0.81 | 0.81 | 96 | 1002.1 |
| 20260508021517 | 50 | 305 | 0.0 | 3.5 | 0.00 | 0.81 | 0.81 | 96 | 1002.3 |
| 20260508020015 | 50 | 345 | 0.0 | 3.5 | 0.00 | 0.81 | 0.81 | 96 | 1002.3 |
| 20260508014532 | 51 | 297 | 1.7 | 4.3 | 0.00 | 0.81 | 0.81 | 96 | 1002.4 |
| 20260508013014 | 51 | 328 | 0.9 | 6.1 | 0.00 | 0.81 | 0.81 | 96 | 1002.4 |
| 20260508011516 | 51 | 291 | 0.0 | 3.5 | 0.00 | 0.81 | 0.81 | 96 | 1002.3 |
| 20260508010024 | 52 | 80 | 0.0 | 2.6 | 0.00 | 0.81 | 0.81 | 96 | 1002.1 |
| 20260508004520 | 52 | 81 | 0.0 | 2.6 | 0.00 | 0.81 | 0.81 | 96 | 1002.0 |
| 20260508003034 | 52 | 303 | 0.0 | 3.5 | 0.00 | 0.81 | 0.81 | 96 | 1002.1 |
| 20260508001511 | 51 | 231 | 0.0 | 1.7 | 0.00 | 0.81 | 0.81 | 96 | 1002.0 |
| 20260508000011 | 51 | 230 | 0.9 | 1.7 | 0.00 | 0.81 | 0.81 | 96 | 1001.8 |
| 20260507234511 | 51 | 231 | 0.0 | 2.6 | 0.00 | 0.81 | 0.81 | 96 | 1001.8 |
| 20260507233010 | 51 | 231 | 0.0 | 1.7 | 0.00 | 0.81 | 0.81 | 96 | 1002.2 |
| 20260507231510 | 51 | 230 | 0.0 | 2.6 | 0.00 | 0.81 | 0.81 | 96 | 1002.0 |
| 20260507230014 | 51 | 231 | 0.0 | 1.7 | 0.00 | 0.81 | 0.81 | 96 | 1002.2 |
| 20260507224512 | 51 | 231 | 1.7 | 4.3 | 0.00 | 0.81 | 0.81 | 96 | 1002.1 |
| 20260507223008 | 52 | 240 | 1.7 | 4.3 | 0.00 | 0.81 | 0.81 | 96 | 1002.0 |
| 20260507221607 | 52 | 168 | 0.9 | 2.6 | 0.00 | 0.81 | 0.81 | 96 | 1001.9 |
| 20260507220006 | 52 | 166 | 0.9 | 4.3 | 0.00 | 0.81 | 0.81 | 95 | 1002.0 |
| 20260507214505 | 52 | 170 | 3.5 | 6.1 | 0.00 | 0.81 | 0.81 | 95 | 1002.1 |
| 20260507213005 | 52 | 178 | 1.7 | 5.2 | 0.00 | 0.81 | 0.81 | 96 | 1002.2 |
| 20260507211504 | 52 | 168 | 0.0 | 4.3 | 0.00 | 0.81 | 0.81 | 96 | 1003.0 |
| 20260507210003 | 52 | 223 | 3.5 | 9.6 | 0.02 | 0.81 | 0.81 | 95 | 1002.5 |
| 20260507204502 | 52 | 253 | 3.5 | 8.7 | 0.02 | 0.81 | 0.81 | 95 | 1002.1 |
| 20260507203004 | 52 | 183 | 2.6 | 7.0 | 0.04 | 0.81 | 0.81 | 96 | 1001.6 |
| 20260507201612 | 52 | 199 | 2.6 | 7.8 | 0.07 | 0.81 | 0.81 | 95 | 1001.8 |
| 20260507200104 | 52 | 195 | 1.7 | 9.6 | 0.10 | 0.80 | 0.80 | 95 | 1001.8 |
| 20260507194557 | 53 | 171 | 2.6 | 7.0 | 0.17 | 0.79 | 0.79 | 95 | 1002.7 |
| 20260507193053 | 53 | 350 | 1.7 | 7.8 | 0.21 | 0.77 | 0.77 | 96 | 1002.7 |
| 20260507191553 | 53 | 126 | 1.7 | 3.5 | 0.26 | 0.74 | 0.74 | 96 | 1003.3 |
| 20260507190048 | 52 | 213 | 0.9 | 2.6 | 0.28 | 0.69 | 0.69 | 96 | 1004.1 |
| 20260507184547 | 52 | 209 | 1.7 | 7.0 | 0.31 | 0.62 | 0.62 | 96 | 1004.5 |
| 20260507183045 | 52 | 204 | 2.6 | 7.0 | 0.41 | 0.55 | 0.55 | 96 | 1004.6 |
| 20260507181544 | 52 | 170 | 2.6 | 7.8 | 0.45 | 0.48 | 0.48 | 95 | 1004.7 |
| 20260507180046 | 51 | 171 | 1.7 | 7.8 | 0.37 | 0.39 | 0.39 | 95 | 1005.1 |
| 20260507174543 | 51 | 227 | 2.6 | 6.1 | 0.31 | 0.31 | 0.31 | 95 | 1005.7 |
| 20260507173041 | 51 | 211 | 1.7 | 7.8 | 0.13 | 0.13 | 0.13 | 94 | 1005.6 |
| 20260507171541 | 51 | 201 | 3.5 | 13.9 | 0.03 | 0.03 | 0.03 | 94 | 1005.0 |
| 20260507170038 | 51 | 218 | 0.9 | 11.3 | 0.02 | 0.02 | 0.02 | 94 | 1004.9 |
| 20260507164536 | 51 | 191 | 4.3 | 15.6 | 0.00 | 0.00 | 0.00 | 93 | 1005.2 |
| 20260507163033 | 52 | 208 | 5.2 | 10.4 | 0.00 | 0.00 | 0.00 | 92 | 1005.8 |
| 20260507161531 | 52 | 162 | 6.1 | 13.0 | 0.00 | 0.00 | 0.00 | 92 | 1006.2 |
| 20260507160034 | 52 | 195 | 7.0 | 13.9 | 0.00 | 0.00 | 0.00 | 92 | 1006.5 |
| 20260507154529 | 53 | 195 | 3.5 | 13.9 | 0.00 | 0.00 | 0.00 | 92 | 1006.8 |
| 20260507153031 | 53 | 164 | 5.2 | 16.5 | 0.00 | 0.00 | 0.00 | 91 | 1007.0 |